sensor_id;sensor_type;location;lat;lon;timestamp;P1;durP1;ratioP1;P2;durP2;ratioP2
23260;SDS011;11799;47.740;-3.390;2023-03-02T00:01:49;19.15;;;9.48;;
23260;SDS011;11799;47.740;-3.390;2023-03-02T00:04:16;16.02;;;9.23;;
23260;SDS011;11799;47.740;-3.390;2023-03-02T00:06:47;18.25;;;9.57;;
23260;SDS011;11799;47.740;-3.390;2023-03-02T00:09:14;22.33;;;9.40;;
23260;SDS011;11799;47.740;-3.390;2023-03-02T00:11:40;16.05;;;9.88;;
23260;SDS011;11799;47.740;-3.390;2023-03-02T00:14:06;17.67;;;10.07;;
23260;SDS011;11799;47.740;-3.390;2023-03-02T00:16:32;17.38;;;9.35;;
23260;SDS011;11799;47.740;-3.390;2023-03-02T00:18:58;21.05;;;10.13;;
23260;SDS011;11799;47.740;-3.390;2023-03-02T00:21:23;16.20;;;9.20;;
23260;SDS011;11799;47.740;-3.390;2023-03-02T00:23:49;15.02;;;9.63;;
23260;SDS011;11799;47.740;-3.390;2023-03-02T00:26:16;16.02;;;9.82;;
23260;SDS011;11799;47.740;-3.390;2023-03-02T00:28:43;16.52;;;9.73;;
23260;SDS011;11799;47.740;-3.390;2023-03-02T00:31:09;16.25;;;9.45;;
23260;SDS011;11799;47.740;-3.390;2023-03-02T00:33:34;15.45;;;9.20;;
23260;SDS011;11799;47.740;-3.390;2023-03-02T00:36:00;19.17;;;10.13;;
23260;SDS011;11799;47.740;-3.390;2023-03-02T00:38:26;16.58;;;10.20;;
23260;SDS011;11799;47.740;-3.390;2023-03-02T00:40:52;18.33;;;10.38;;
23260;SDS011;11799;47.740;-3.390;2023-03-02T00:43:19;16.83;;;9.30;;
23260;SDS011;11799;47.740;-3.390;2023-03-02T00:45:47;17.85;;;9.88;;
23260;SDS011;11799;47.740;-3.390;2023-03-02T00:48:12;17.52;;;9.20;;
23260;SDS011;11799;47.740;-3.390;2023-03-02T00:50:38;15.73;;;8.93;;
23260;SDS011;11799;47.740;-3.390;2023-03-02T00:53:08;15.88;;;9.07;;
23260;SDS011;11799;47.740;-3.390;2023-03-02T00:55:34;22.73;;;9.95;;
23260;SDS011;11799;47.740;-3.390;2023-03-02T00:58:01;18.92;;;9.50;;
23260;SDS011;11799;47.740;-3.390;2023-03-02T01:00:28;15.05;;;9.55;;
23260;SDS011;11799;47.740;-3.390;2023-03-02T01:02:58;16.30;;;9.80;;
23260;SDS011;11799;47.740;-3.390;2023-03-02T01:05:24;20.67;;;9.60;;
23260;SDS011;11799;47.740;-3.390;2023-03-02T01:07:50;18.52;;;9.02;;
23260;SDS011;11799;47.740;-3.390;2023-03-02T01:10:15;17.98;;;9.32;;
23260;SDS011;11799;47.740;-3.390;2023-03-02T01:12:41;21.33;;;9.00;;
23260;SDS011;11799;47.740;-3.390;2023-03-02T01:15:07;15.70;;;9.27;;
23260;SDS011;11799;47.740;-3.390;2023-03-02T01:17:33;16.70;;;9.90;;
23260;SDS011;11799;47.740;-3.390;2023-03-02T01:19:59;16.42;;;9.90;;
23260;SDS011;11799;47.740;-3.390;2023-03-02T01:22:25;17.65;;;9.07;;
23260;SDS011;11799;47.740;-3.390;2023-03-02T01:24:51;14.98;;;9.55;;
23260;SDS011;11799;47.740;-3.390;2023-03-02T01:27:17;18.23;;;9.25;;
23260;SDS011;11799;47.740;-3.390;2023-03-02T01:29:43;15.75;;;9.55;;
23260;SDS011;11799;47.740;-3.390;2023-03-02T01:32:09;15.05;;;9.00;;
23260;SDS011;11799;47.740;-3.390;2023-03-02T01:34:34;19.10;;;9.40;;
23260;SDS011;11799;47.740;-3.390;2023-03-02T01:37:00;19.48;;;9.75;;
23260;SDS011;11799;47.740;-3.390;2023-03-02T01:39:26;17.33;;;9.23;;
23260;SDS011;11799;47.740;-3.390;2023-03-02T01:41:51;15.23;;;9.07;;
23260;SDS011;11799;47.740;-3.390;2023-03-02T01:47:03;17.63;;;9.20;;
23260;SDS011;11799;47.740;-3.390;2023-03-02T01:49:42;16.10;;;8.77;;
23260;SDS011;11799;47.740;-3.390;2023-03-02T01:52:12;15.90;;;9.07;;
23260;SDS011;11799;47.740;-3.390;2023-03-02T01:54:39;16.33;;;9.82;;
23260;SDS011;11799;47.740;-3.390;2023-03-02T01:57:07;17.33;;;9.07;;
23260;SDS011;11799;47.740;-3.390;2023-03-02T01:59:34;16.27;;;8.98;;
23260;SDS011;11799;47.740;-3.390;2023-03-02T02:02:05;13.65;;;8.93;;
23260;SDS011;11799;47.740;-3.390;2023-03-02T02:04:32;14.20;;;9.30;;
23260;SDS011;11799;47.740;-3.390;2023-03-02T02:09:30;14.20;;;8.48;;
23260;SDS011;11799;47.740;-3.390;2023-03-02T02:11:59;15.48;;;8.90;;
23260;SDS011;11799;47.740;-3.390;2023-03-02T02:14:25;18.50;;;10.02;;
23260;SDS011;11799;47.740;-3.390;2023-03-02T02:16:51;15.35;;;8.90;;
23260;SDS011;11799;47.740;-3.390;2023-03-02T02:21:57;19.00;;;8.63;;
23260;SDS011;11799;47.740;-3.390;2023-03-02T02:24:32;16.92;;;9.15;;
23260;SDS011;11799;47.740;-3.390;2023-03-02T02:27:05;18.70;;;9.18;;
23260;SDS011;11799;47.740;-3.390;2023-03-02T02:29:33;18.98;;;9.07;;
23260;SDS011;11799;47.740;-3.390;2023-03-02T02:37:22;14.77;;;9.40;;
23260;SDS011;11799;47.740;-3.390;2023-03-02T02:39:53;14.07;;;8.55;;
23260;SDS011;11799;47.740;-3.390;2023-03-02T02:42:22;16.10;;;9.10;;
23260;SDS011;11799;47.740;-3.390;2023-03-02T02:44:54;15.27;;;9.55;;
23260;SDS011;11799;47.740;-3.390;2023-03-02T02:47:22;18.25;;;9.15;;
23260;SDS011;11799;47.740;-3.390;2023-03-02T02:49:49;15.60;;;9.25;;
23260;SDS011;11799;47.740;-3.390;2023-03-02T02:52:19;18.60;;;9.93;;
23260;SDS011;11799;47.740;-3.390;2023-03-02T02:54:48;14.85;;;8.75;;
23260;SDS011;11799;47.740;-3.390;2023-03-02T02:57:16;15.07;;;9.23;;
23260;SDS011;11799;47.740;-3.390;2023-03-02T02:59:45;16.48;;;9.68;;
23260;SDS011;11799;47.740;-3.390;2023-03-02T03:02:16;17.92;;;8.77;;
23260;SDS011;11799;47.740;-3.390;2023-03-02T03:04:44;18.23;;;9.15;;
23260;SDS011;11799;47.740;-3.390;2023-03-02T03:07:10;15.63;;;8.70;;
23260;SDS011;11799;47.740;-3.390;2023-03-02T03:09:44;18.10;;;9.38;;
23260;SDS011;11799;47.740;-3.390;2023-03-02T03:12:15;19.25;;;9.45;;
23260;SDS011;11799;47.740;-3.390;2023-03-02T03:14:43;23.58;;;9.85;;
23260;SDS011;11799;47.740;-3.390;2023-03-02T03:17:10;18.58;;;9.63;;
23260;SDS011;11799;47.740;-3.390;2023-03-02T03:19:43;15.40;;;9.02;;
23260;SDS011;11799;47.740;-3.390;2023-03-02T03:22:10;17.60;;;9.80;;
23260;SDS011;11799;47.740;-3.390;2023-03-02T03:24:38;18.35;;;9.85;;
23260;SDS011;11799;47.740;-3.390;2023-03-02T03:27:05;16.13;;;9.15;;
23260;SDS011;11799;47.740;-3.390;2023-03-02T03:29:35;12.90;;;7.07;;
23260;SDS011;11799;47.740;-3.390;2023-03-02T03:32:05;18.48;;;9.25;;
23260;SDS011;11799;47.740;-3.390;2023-03-02T03:34:31;14.02;;;8.95;;
23260;SDS011;11799;47.740;-3.390;2023-03-02T03:36:58;17.70;;;9.88;;
23260;SDS011;11799;47.740;-3.390;2023-03-02T03:39:28;21.88;;;10.27;;
23260;SDS011;11799;47.740;-3.390;2023-03-02T03:41:55;17.20;;;9.50;;
23260;SDS011;11799;47.740;-3.390;2023-03-02T03:44:21;14.60;;;9.02;;
23260;SDS011;11799;47.740;-3.390;2023-03-02T03:46:47;15.63;;;9.13;;
23260;SDS011;11799;47.740;-3.390;2023-03-02T03:49:13;14.70;;;9.43;;
23260;SDS011;11799;47.740;-3.390;2023-03-02T03:51:39;20.33;;;9.30;;
23260;SDS011;11799;47.740;-3.390;2023-03-02T03:54:05;18.92;;;9.30;;
23260;SDS011;11799;47.740;-3.390;2023-03-02T03:56:39;18.75;;;9.77;;
23260;SDS011;11799;47.740;-3.390;2023-03-02T03:59:08;16.42;;;9.00;;
23260;SDS011;11799;47.740;-3.390;2023-03-02T04:01:41;18.20;;;9.93;;
23260;SDS011;11799;47.740;-3.390;2023-03-02T04:04:10;17.38;;;9.65;;
23260;SDS011;11799;47.740;-3.390;2023-03-02T04:06:39;15.70;;;9.80;;
23260;SDS011;11799;47.740;-3.390;2023-03-02T04:09:04;15.20;;;9.90;;
23260;SDS011;11799;47.740;-3.390;2023-03-02T04:11:32;18.95;;;10.27;;
23260;SDS011;11799;47.740;-3.390;2023-03-02T04:13:59;18.10;;;10.20;;
23260;SDS011;11799;47.740;-3.390;2023-03-02T04:16:26;16.63;;;9.27;;
23260;SDS011;11799;47.740;-3.390;2023-03-02T04:18:52;19.23;;;10.45;;
23260;SDS011;11799;47.740;-3.390;2023-03-02T04:21:19;16.23;;;9.98;;
23260;SDS011;11799;47.740;-3.390;2023-03-02T04:23:45;18.17;;;10.35;;
23260;SDS011;11799;47.740;-3.390;2023-03-02T04:26:10;13.73;;;9.25;;
23260;SDS011;11799;47.740;-3.390;2023-03-02T04:28:36;18.45;;;10.13;;
23260;SDS011;11799;47.740;-3.390;2023-03-02T04:31:01;16.42;;;9.65;;
23260;SDS011;11799;47.740;-3.390;2023-03-02T04:33:27;16.20;;;9.63;;
23260;SDS011;11799;47.740;-3.390;2023-03-02T04:35:53;16.55;;;9.65;;
23260;SDS011;11799;47.740;-3.390;2023-03-02T04:38:20;18.42;;;10.20;;
23260;SDS011;11799;47.740;-3.390;2023-03-02T04:40:46;15.18;;;8.85;;
23260;SDS011;11799;47.740;-3.390;2023-03-02T04:43:11;18.45;;;10.15;;
23260;SDS011;11799;47.740;-3.390;2023-03-02T04:45:37;16.02;;;9.85;;
23260;SDS011;11799;47.740;-3.390;2023-03-02T04:48:03;18.80;;;10.00;;
23260;SDS011;11799;47.740;-3.390;2023-03-02T04:50:29;17.08;;;10.50;;
23260;SDS011;11799;47.740;-3.390;2023-03-02T04:52:55;16.02;;;9.60;;
23260;SDS011;11799;47.740;-3.390;2023-03-02T04:55:21;15.85;;;9.63;;
23260;SDS011;11799;47.740;-3.390;2023-03-02T04:57:49;18.27;;;9.95;;
23260;SDS011;11799;47.740;-3.390;2023-03-02T05:00:15;16.92;;;10.55;;
23260;SDS011;11799;47.740;-3.390;2023-03-02T05:02:42;21.05;;;10.98;;
23260;SDS011;11799;47.740;-3.390;2023-03-02T05:05:12;18.33;;;10.30;;
23260;SDS011;11799;47.740;-3.390;2023-03-02T05:07:41;17.17;;;9.38;;
23260;SDS011;11799;47.740;-3.390;2023-03-02T05:10:07;17.52;;;9.80;;
23260;SDS011;11799;47.740;-3.390;2023-03-02T05:12:33;19.25;;;9.75;;
23260;SDS011;11799;47.740;-3.390;2023-03-02T05:15:18;18.75;;;9.43;;
23260;SDS011;11799;47.740;-3.390;2023-03-02T05:17:45;18.55;;;10.32;;
23260;SDS011;11799;47.740;-3.390;2023-03-02T05:20:11;16.27;;;9.82;;
23260;SDS011;11799;47.740;-3.390;2023-03-02T05:22:37;18.08;;;9.75;;
23260;SDS011;11799;47.740;-3.390;2023-03-02T05:25:02;14.73;;;9.57;;
23260;SDS011;11799;47.740;-3.390;2023-03-02T05:27:29;13.57;;;9.15;;
23260;SDS011;11799;47.740;-3.390;2023-03-02T05:29:54;19.42;;;10.00;;
23260;SDS011;11799;47.740;-3.390;2023-03-02T05:32:20;20.63;;;11.30;;
23260;SDS011;11799;47.740;-3.390;2023-03-02T05:34:45;16.58;;;9.73;;
23260;SDS011;11799;47.740;-3.390;2023-03-02T05:37:11;16.60;;;9.43;;
23260;SDS011;11799;47.740;-3.390;2023-03-02T05:39:36;19.10;;;10.57;;
23260;SDS011;11799;47.740;-3.390;2023-03-02T05:42:03;16.58;;;9.63;;
23260;SDS011;11799;47.740;-3.390;2023-03-02T05:44:29;18.27;;;9.95;;
23260;SDS011;11799;47.740;-3.390;2023-03-02T05:46:55;17.63;;;10.77;;
23260;SDS011;11799;47.740;-3.390;2023-03-02T05:49:21;18.25;;;11.10;;
23260;SDS011;11799;47.740;-3.390;2023-03-02T05:51:46;18.25;;;10.65;;
23260;SDS011;11799;47.740;-3.390;2023-03-02T05:54:12;19.83;;;9.85;;
23260;SDS011;11799;47.740;-3.390;2023-03-02T05:56:37;17.27;;;10.50;;
23260;SDS011;11799;47.740;-3.390;2023-03-02T05:59:03;18.55;;;9.85;;
23260;SDS011;11799;47.740;-3.390;2023-03-02T06:01:28;19.80;;;10.75;;
23260;SDS011;11799;47.740;-3.390;2023-03-02T06:03:54;17.83;;;10.32;;
23260;SDS011;11799;47.740;-3.390;2023-03-02T06:06:20;18.27;;;10.27;;
23260;SDS011;11799;47.740;-3.390;2023-03-02T06:08:45;17.55;;;10.52;;
23260;SDS011;11799;47.740;-3.390;2023-03-02T06:11:11;18.10;;;10.73;;
23260;SDS011;11799;47.740;-3.390;2023-03-02T06:13:37;17.73;;;9.93;;
23260;SDS011;11799;47.740;-3.390;2023-03-02T06:16:03;18.15;;;10.45;;
23260;SDS011;11799;47.740;-3.390;2023-03-02T06:18:29;18.75;;;10.40;;
23260;SDS011;11799;47.740;-3.390;2023-03-02T06:20:55;16.63;;;10.10;;
23260;SDS011;11799;47.740;-3.390;2023-03-02T06:23:21;21.25;;;9.52;;
23260;SDS011;11799;47.740;-3.390;2023-03-02T06:25:46;17.95;;;10.38;;
23260;SDS011;11799;47.740;-3.390;2023-03-02T06:28:14;18.00;;;10.10;;
23260;SDS011;11799;47.740;-3.390;2023-03-02T06:30:40;23.25;;;11.48;;
23260;SDS011;11799;47.740;-3.390;2023-03-02T06:33:06;19.40;;;11.35;;
23260;SDS011;11799;47.740;-3.390;2023-03-02T06:35:32;18.63;;;10.40;;
23260;SDS011;11799;47.740;-3.390;2023-03-02T06:37:58;18.50;;;9.90;;
23260;SDS011;11799;47.740;-3.390;2023-03-02T06:40:24;18.65;;;10.75;;
23260;SDS011;11799;47.740;-3.390;2023-03-02T06:42:50;20.97;;;10.20;;
23260;SDS011;11799;47.740;-3.390;2023-03-02T06:45:15;19.58;;;9.85;;
23260;SDS011;11799;47.740;-3.390;2023-03-02T06:47:41;21.63;;;10.55;;
23260;SDS011;11799;47.740;-3.390;2023-03-02T06:50:07;19.38;;;10.65;;
23260;SDS011;11799;47.740;-3.390;2023-03-02T06:52:33;20.27;;;10.98;;
23260;SDS011;11799;47.740;-3.390;2023-03-02T06:54:59;20.05;;;10.48;;
23260;SDS011;11799;47.740;-3.390;2023-03-02T06:57:25;18.75;;;11.02;;
23260;SDS011;11799;47.740;-3.390;2023-03-02T06:59:58;19.25;;;10.57;;
23260;SDS011;11799;47.740;-3.390;2023-03-02T07:02:25;19.15;;;10.65;;
23260;SDS011;11799;47.740;-3.390;2023-03-02T07:04:50;21.75;;;11.00;;
23260;SDS011;11799;47.740;-3.390;2023-03-02T07:07:16;18.55;;;11.15;;
23260;SDS011;11799;47.740;-3.390;2023-03-02T07:09:41;19.85;;;11.45;;
23260;SDS011;11799;47.740;-3.390;2023-03-02T07:12:06;21.35;;;11.77;;
23260;SDS011;11799;47.740;-3.390;2023-03-02T07:14:33;18.08;;;10.73;;
23260;SDS011;11799;47.740;-3.390;2023-03-02T07:17:02;17.35;;;10.70;;
23260;SDS011;11799;47.740;-3.390;2023-03-02T07:19:29;24.58;;;11.50;;
23260;SDS011;11799;47.740;-3.390;2023-03-02T07:21:54;19.52;;;10.65;;
23260;SDS011;11799;47.740;-3.390;2023-03-02T07:24:20;18.65;;;11.20;;
23260;SDS011;11799;47.740;-3.390;2023-03-02T07:26:46;19.35;;;11.13;;
23260;SDS011;11799;47.740;-3.390;2023-03-02T07:29:12;19.95;;;11.13;;
23260;SDS011;11799;47.740;-3.390;2023-03-02T07:31:37;22.55;;;11.50;;
23260;SDS011;11799;47.740;-3.390;2023-03-02T07:34:03;22.88;;;11.27;;
23260;SDS011;11799;47.740;-3.390;2023-03-02T07:36:28;20.33;;;11.40;;
23260;SDS011;11799;47.740;-3.390;2023-03-02T07:38:54;18.98;;;11.32;;
23260;SDS011;11799;47.740;-3.390;2023-03-02T07:41:20;22.50;;;12.10;;
23260;SDS011;11799;47.740;-3.390;2023-03-02T07:43:47;19.13;;;11.57;;
23260;SDS011;11799;47.740;-3.390;2023-03-02T07:46:12;23.92;;;11.95;;
23260;SDS011;11799;47.740;-3.390;2023-03-02T07:48:38;24.88;;;11.88;;
23260;SDS011;11799;47.740;-3.390;2023-03-02T07:51:05;22.87;;;11.80;;
23260;SDS011;11799;47.740;-3.390;2023-03-02T07:53:31;21.17;;;11.82;;
23260;SDS011;11799;47.740;-3.390;2023-03-02T07:55:56;25.10;;;11.77;;
23260;SDS011;11799;47.740;-3.390;2023-03-02T07:58:22;21.92;;;12.27;;
23260;SDS011;11799;47.740;-3.390;2023-03-02T08:00:48;23.65;;;12.20;;
23260;SDS011;11799;47.740;-3.390;2023-03-02T08:03:14;23.92;;;12.10;;
23260;SDS011;11799;47.740;-3.390;2023-03-02T08:05:40;20.52;;;11.25;;
23260;SDS011;11799;47.740;-3.390;2023-03-02T08:08:05;18.13;;;10.93;;
23260;SDS011;11799;47.740;-3.390;2023-03-02T08:10:34;17.02;;;9.93;;
23260;SDS011;11799;47.740;-3.390;2023-03-02T08:13:00;31.05;;;12.60;;
23260;SDS011;11799;47.740;-3.390;2023-03-02T08:15:26;24.75;;;11.82;;
23260;SDS011;11799;47.740;-3.390;2023-03-02T08:17:51;22.52;;;12.52;;
23260;SDS011;11799;47.740;-3.390;2023-03-02T08:20:17;24.25;;;12.25;;
23260;SDS011;11799;47.740;-3.390;2023-03-02T08:22:43;17.23;;;10.90;;
23260;SDS011;11799;47.740;-3.390;2023-03-02T08:25:08;18.35;;;11.05;;
23260;SDS011;11799;47.740;-3.390;2023-03-02T08:27:34;16.92;;;11.00;;
23260;SDS011;11799;47.740;-3.390;2023-03-02T08:29:59;19.65;;;11.73;;
23260;SDS011;11799;47.740;-3.390;2023-03-02T08:32:25;18.88;;;10.57;;
23260;SDS011;11799;47.740;-3.390;2023-03-02T08:34:50;20.50;;;11.73;;
23260;SDS011;11799;47.740;-3.390;2023-03-02T08:37:17;20.50;;;11.75;;
23260;SDS011;11799;47.740;-3.390;2023-03-02T08:39:43;20.10;;;11.48;;
23260;SDS011;11799;47.740;-3.390;2023-03-02T08:42:09;17.20;;;11.10;;
23260;SDS011;11799;47.740;-3.390;2023-03-02T08:44:34;23.17;;;11.80;;
23260;SDS011;11799;47.740;-3.390;2023-03-02T08:47:00;15.25;;;10.15;;
23260;SDS011;11799;47.740;-3.390;2023-03-02T08:49:25;19.05;;;11.30;;
23260;SDS011;11799;47.740;-3.390;2023-03-02T08:51:52;21.58;;;11.43;;
23260;SDS011;11799;47.740;-3.390;2023-03-02T08:54:20;21.15;;;11.68;;
23260;SDS011;11799;47.740;-3.390;2023-03-02T08:56:46;25.33;;;12.07;;
23260;SDS011;11799;47.740;-3.390;2023-03-02T08:59:13;18.00;;;11.25;;
23260;SDS011;11799;47.740;-3.390;2023-03-02T09:01:38;17.48;;;10.98;;
23260;SDS011;11799;47.740;-3.390;2023-03-02T09:04:05;18.77;;;10.40;;
23260;SDS011;11799;47.740;-3.390;2023-03-02T09:06:33;26.45;;;11.05;;
23260;SDS011;11799;47.740;-3.390;2023-03-02T09:09:01;20.67;;;12.50;;
23260;SDS011;11799;47.740;-3.390;2023-03-02T09:11:27;18.08;;;11.27;;
23260;SDS011;11799;47.740;-3.390;2023-03-02T09:13:53;25.27;;;11.57;;
23260;SDS011;11799;47.740;-3.390;2023-03-02T09:16:20;21.60;;;11.43;;
23260;SDS011;11799;47.740;-3.390;2023-03-02T09:18:48;22.77;;;12.07;;
23260;SDS011;11799;47.740;-3.390;2023-03-02T09:21:14;21.80;;;12.27;;
23260;SDS011;11799;47.740;-3.390;2023-03-02T09:23:40;18.67;;;12.27;;
23260;SDS011;11799;47.740;-3.390;2023-03-02T09:26:06;24.75;;;13.55;;
23260;SDS011;11799;47.740;-3.390;2023-03-02T09:28:32;23.17;;;13.93;;
23260;SDS011;11799;47.740;-3.390;2023-03-02T09:31:00;25.30;;;14.82;;
23260;SDS011;11799;47.740;-3.390;2023-03-02T09:33:27;26.73;;;14.32;;
23260;SDS011;11799;47.740;-3.390;2023-03-02T09:35:53;24.30;;;14.63;;
23260;SDS011;11799;47.740;-3.390;2023-03-02T09:38:19;27.15;;;15.15;;
23260;SDS011;11799;47.740;-3.390;2023-03-02T09:43:20;24.75;;;15.35;;
23260;SDS011;11799;47.740;-3.390;2023-03-02T09:48:52;27.27;;;16.83;;
23260;SDS011;11799;47.740;-3.390;2023-03-02T09:51:24;29.90;;;17.27;;
23260;SDS011;11799;47.740;-3.390;2023-03-02T09:56:45;24.52;;;16.40;;
23260;SDS011;11799;47.740;-3.390;2023-03-02T10:01:43;31.10;;;18.45;;
23260;SDS011;11799;47.740;-3.390;2023-03-02T10:04:35;30.20;;;17.38;;
23260;SDS011;11799;47.740;-3.390;2023-03-02T10:07:11;26.30;;;16.85;;
23260;SDS011;11799;47.740;-3.390;2023-03-02T10:09:39;32.50;;;18.38;;
23260;SDS011;11799;47.740;-3.390;2023-03-02T10:14:52;29.75;;;18.17;;
23260;SDS011;11799;47.740;-3.390;2023-03-02T10:23:23;25.77;;;16.50;;
23260;SDS011;11799;47.740;-3.390;2023-03-02T10:28:34;28.38;;;17.92;;
23260;SDS011;11799;47.740;-3.390;2023-03-02T10:31:13;28.38;;;17.77;;
23260;SDS011;11799;47.740;-3.390;2023-03-02T10:33:47;28.00;;;17.35;;
23260;SDS011;11799;47.740;-3.390;2023-03-02T10:36:26;30.33;;;18.38;;
23260;SDS011;11799;47.740;-3.390;2023-03-02T10:38:54;27.45;;;17.33;;
23260;SDS011;11799;47.740;-3.390;2023-03-02T10:41:24;29.88;;;18.00;;
23260;SDS011;11799;47.740;-3.390;2023-03-02T10:46:43;26.90;;;17.73;;
23260;SDS011;11799;47.740;-3.390;2023-03-02T10:54:36;26.83;;;17.55;;
23260;SDS011;11799;47.740;-3.390;2023-03-02T10:57:03;28.60;;;18.48;;
23260;SDS011;11799;47.740;-3.390;2023-03-02T10:59:43;29.13;;;19.83;;
23260;SDS011;11799;47.740;-3.390;2023-03-02T11:02:17;27.92;;;19.10;;
23260;SDS011;11799;47.740;-3.390;2023-03-02T11:04:57;32.38;;;19.50;;
23260;SDS011;11799;47.740;-3.390;2023-03-02T11:07:56;32.85;;;19.05;;
23260;SDS011;11799;47.740;-3.390;2023-03-02T11:10:23;35.83;;;19.52;;
23260;SDS011;11799;47.740;-3.390;2023-03-02T11:12:57;30.55;;;19.45;;
23260;SDS011;11799;47.740;-3.390;2023-03-02T11:15:27;31.73;;;20.45;;
23260;SDS011;11799;47.740;-3.390;2023-03-02T11:18:46;33.50;;;21.95;;
23260;SDS011;11799;47.740;-3.390;2023-03-02T11:29:33;34.63;;;21.83;;
23260;SDS011;11799;47.740;-3.390;2023-03-02T11:32:12;35.55;;;21.65;;
23260;SDS011;11799;47.740;-3.390;2023-03-02T11:39:57;35.33;;;22.15;;
23260;SDS011;11799;47.740;-3.390;2023-03-02T11:42:42;32.85;;;21.20;;
23260;SDS011;11799;47.740;-3.390;2023-03-02T11:47:37;37.03;;;22.38;;
23260;SDS011;11799;47.740;-3.390;2023-03-02T11:50:04;35.92;;;22.45;;
23260;SDS011;11799;47.740;-3.390;2023-03-02T11:52:35;34.72;;;20.90;;
23260;SDS011;11799;47.740;-3.390;2023-03-02T11:55:25;32.90;;;21.42;;
23260;SDS011;11799;47.740;-3.390;2023-03-02T11:57:56;33.72;;;20.83;;
23260;SDS011;11799;47.740;-3.390;2023-03-02T12:03:06;33.28;;;21.63;;
23260;SDS011;11799;47.740;-3.390;2023-03-02T12:05:57;30.38;;;20.60;;
23260;SDS011;11799;47.740;-3.390;2023-03-02T12:13:38;28.00;;;20.05;;
23260;SDS011;11799;47.740;-3.390;2023-03-02T12:18:58;31.05;;;21.08;;
23260;SDS011;11799;47.740;-3.390;2023-03-02T12:21:39;32.00;;;20.70;;
23260;SDS011;11799;47.740;-3.390;2023-03-02T12:24:17;31.83;;;21.27;;
23260;SDS011;11799;47.740;-3.390;2023-03-02T12:26:58;32.08;;;21.35;;
23260;SDS011;11799;47.740;-3.390;2023-03-02T12:29:45;31.50;;;21.25;;
23260;SDS011;11799;47.740;-3.390;2023-03-02T12:32:21;29.65;;;20.67;;
23260;SDS011;11799;47.740;-3.390;2023-03-02T12:34:54;32.95;;;21.35;;
23260;SDS011;11799;47.740;-3.390;2023-03-02T12:42:42;29.92;;;20.90;;
23260;SDS011;11799;47.740;-3.390;2023-03-02T12:47:43;30.10;;;20.75;;
23260;SDS011;11799;47.740;-3.390;2023-03-02T12:50:16;31.80;;;21.88;;
23260;SDS011;11799;47.740;-3.390;2023-03-02T12:52:55;32.20;;;21.20;;
23260;SDS011;11799;47.740;-3.390;2023-03-02T12:55:26;32.47;;;20.60;;
23260;SDS011;11799;47.740;-3.390;2023-03-02T12:57:54;29.20;;;21.05;;
23260;SDS011;11799;47.740;-3.390;2023-03-02T13:00:30;31.90;;;21.92;;
23260;SDS011;11799;47.740;-3.390;2023-03-02T13:02:57;31.52;;;20.80;;
23260;SDS011;11799;47.740;-3.390;2023-03-02T13:05:32;29.63;;;20.70;;
23260;SDS011;11799;47.740;-3.390;2023-03-02T13:08:04;30.63;;;20.20;;
23260;SDS011;11799;47.740;-3.390;2023-03-02T13:15:45;26.02;;;18.73;;
23260;SDS011;11799;47.740;-3.390;2023-03-02T13:18:13;26.92;;;19.05;;
23260;SDS011;11799;47.740;-3.390;2023-03-02T13:20:39;30.05;;;21.08;;
23260;SDS011;11799;47.740;-3.390;2023-03-02T13:23:05;32.08;;;20.33;;
23260;SDS011;11799;47.740;-3.390;2023-03-02T13:25:30;30.55;;;21.15;;
23260;SDS011;11799;47.740;-3.390;2023-03-02T13:27:57;31.92;;;21.58;;
23260;SDS011;11799;47.740;-3.390;2023-03-02T13:30:26;29.95;;;21.35;;
23260;SDS011;11799;47.740;-3.390;2023-03-02T13:32:56;31.67;;;21.65;;
23260;SDS011;11799;47.740;-3.390;2023-03-02T13:35:26;32.22;;;21.60;;
23260;SDS011;11799;47.740;-3.390;2023-03-02T13:37:59;34.42;;;22.67;;
23260;SDS011;11799;47.740;-3.390;2023-03-02T13:40:40;33.25;;;21.45;;
23260;SDS011;11799;47.740;-3.390;2023-03-02T13:43:37;31.65;;;21.02;;
23260;SDS011;11799;47.740;-3.390;2023-03-02T13:46:23;31.10;;;20.77;;
23260;SDS011;11799;47.740;-3.390;2023-03-02T13:48:55;32.33;;;20.45;;
23260;SDS011;11799;47.740;-3.390;2023-03-02T13:51:22;30.20;;;20.35;;
23260;SDS011;11799;47.740;-3.390;2023-03-02T13:53:56;27.73;;;19.80;;
23260;SDS011;11799;47.740;-3.390;2023-03-02T13:56:27;31.05;;;20.60;;
23260;SDS011;11799;47.740;-3.390;2023-03-02T13:58:57;29.60;;;20.50;;
23260;SDS011;11799;47.740;-3.390;2023-03-02T14:01:22;30.25;;;19.27;;
23260;SDS011;11799;47.740;-3.390;2023-03-02T14:03:48;32.08;;;20.92;;
23260;SDS011;11799;47.740;-3.390;2023-03-02T14:06:14;28.10;;;19.45;;
23260;SDS011;11799;47.740;-3.390;2023-03-02T14:08:39;30.48;;;20.13;;
23260;SDS011;11799;47.740;-3.390;2023-03-02T14:11:05;26.83;;;18.80;;
23260;SDS011;11799;47.740;-3.390;2023-03-02T14:16:27;27.00;;;18.77;;
23260;SDS011;11799;47.740;-3.390;2023-03-02T14:18:53;29.05;;;19.88;;
23260;SDS011;11799;47.740;-3.390;2023-03-02T14:21:24;32.13;;;21.42;;
23260;SDS011;11799;47.740;-3.390;2023-03-02T14:23:50;30.50;;;20.60;;
23260;SDS011;11799;47.740;-3.390;2023-03-02T14:28:42;24.83;;;18.15;;
23260;SDS011;11799;47.740;-3.390;2023-03-02T14:31:09;32.28;;;20.02;;
23260;SDS011;11799;47.740;-3.390;2023-03-02T14:33:35;31.95;;;19.98;;
23260;SDS011;11799;47.740;-3.390;2023-03-02T14:36:01;32.45;;;18.95;;
23260;SDS011;11799;47.740;-3.390;2023-03-02T14:38:28;31.48;;;19.30;;
23260;SDS011;11799;47.740;-3.390;2023-03-02T14:40:54;33.10;;;19.90;;
23260;SDS011;11799;47.740;-3.390;2023-03-02T14:43:21;29.10;;;18.58;;
23260;SDS011;11799;47.740;-3.390;2023-03-02T14:45:47;32.13;;;18.90;;
23260;SDS011;11799;47.740;-3.390;2023-03-02T14:48:14;28.13;;;19.38;;
23260;SDS011;11799;47.740;-3.390;2023-03-02T14:50:41;33.65;;;19.20;;
23260;SDS011;11799;47.740;-3.390;2023-03-02T14:53:16;31.50;;;19.40;;
23260;SDS011;11799;47.740;-3.390;2023-03-02T14:55:44;28.00;;;18.85;;
23260;SDS011;11799;47.740;-3.390;2023-03-02T14:58:15;27.35;;;18.42;;
23260;SDS011;11799;47.740;-3.390;2023-03-02T15:00:44;30.23;;;18.15;;
23260;SDS011;11799;47.740;-3.390;2023-03-02T15:03:12;25.92;;;16.83;;
23260;SDS011;11799;47.740;-3.390;2023-03-02T15:05:40;28.55;;;17.70;;
23260;SDS011;11799;47.740;-3.390;2023-03-02T15:08:08;27.00;;;17.35;;
23260;SDS011;11799;47.740;-3.390;2023-03-02T15:10:38;25.48;;;17.00;;
23260;SDS011;11799;47.740;-3.390;2023-03-02T15:13:09;28.90;;;17.30;;
23260;SDS011;11799;47.740;-3.390;2023-03-02T15:15:36;29.27;;;18.00;;
23260;SDS011;11799;47.740;-3.390;2023-03-02T15:18:02;27.77;;;16.42;;
23260;SDS011;11799;47.740;-3.390;2023-03-02T15:20:28;27.08;;;17.27;;
23260;SDS011;11799;47.740;-3.390;2023-03-02T15:22:54;28.60;;;17.13;;
23260;SDS011;11799;47.740;-3.390;2023-03-02T15:25:20;27.83;;;16.65;;
23260;SDS011;11799;47.740;-3.390;2023-03-02T15:27:48;27.63;;;16.98;;
23260;SDS011;11799;47.740;-3.390;2023-03-02T15:30:14;27.48;;;16.83;;
23260;SDS011;11799;47.740;-3.390;2023-03-02T15:32:40;24.73;;;16.75;;
23260;SDS011;11799;47.740;-3.390;2023-03-02T15:35:06;30.30;;;17.55;;
23260;SDS011;11799;47.740;-3.390;2023-03-02T15:37:32;26.63;;;18.23;;
23260;SDS011;11799;47.740;-3.390;2023-03-02T15:39:57;29.52;;;17.85;;
23260;SDS011;11799;47.740;-3.390;2023-03-02T15:42:23;30.45;;;17.67;;
23260;SDS011;11799;47.740;-3.390;2023-03-02T15:44:49;25.88;;;17.23;;
23260;SDS011;11799;47.740;-3.390;2023-03-02T15:47:15;29.77;;;17.20;;
23260;SDS011;11799;47.740;-3.390;2023-03-02T15:49:41;28.92;;;18.25;;